sensor_id;sensor_type;location;lat;lon;timestamp;pressure;altitude;pressure_sealevel;temperature;humidity
84710;BME280;75589;42.648;23.274;2024-03-02T00:00:08;92938.41;;;6.60;82.30
84710;BME280;75589;42.648;23.274;2024-03-02T00:02:45;92935.88;;;6.55;83.71
84710;BME280;75589;42.648;23.274;2024-03-02T00:05:12;92956.19;;;6.56;83.56
84710;BME280;75589;42.648;23.274;2024-03-02T00:07:41;92965.75;;;6.51;84.28
84710;BME280;75589;42.648;23.274;2024-03-02T00:10:11;92963.56;;;6.63;82.76
84710;BME280;75589;42.648;23.274;2024-03-02T00:12:39;92966.66;;;6.65;83.14
84710;BME280;75589;42.648;23.274;2024-03-02T00:18:03;92967.50;;;6.55;82.62
84710;BME280;75589;42.648;23.274;2024-03-02T00:20:30;92964.44;;;6.53;83.74
84710;BME280;75589;42.648;23.274;2024-03-02T00:23:03;92972.16;;;6.53;84.55
84710;BME280;75589;42.648;23.274;2024-03-02T00:25:43;92950.69;;;6.39;83.80
84710;BME280;75589;42.648;23.274;2024-03-02T00:28:31;92970.63;;;6.52;83.98
84710;BME280;75589;42.648;23.274;2024-03-02T00:31:05;92961.59;;;6.55;84.46
84710;BME280;75589;42.648;23.274;2024-03-02T00:33:34;92959.72;;;6.60;86.06
84710;BME280;75589;42.648;23.274;2024-03-02T00:36:04;92957.69;;;6.62;84.10
84710;BME280;75589;42.648;23.274;2024-03-02T00:38:32;92957.63;;;6.67;85.68
84710;BME280;75589;42.648;23.274;2024-03-02T00:41:05;92957.88;;;6.66;85.71
84710;BME280;75589;42.648;23.274;2024-03-02T00:43:41;92950.22;;;6.61;84.64
84710;BME280;75589;42.648;23.274;2024-03-02T00:46:07;92948.69;;;6.60;84.91
84710;BME280;75589;42.648;23.274;2024-03-02T00:48:33;92959.47;;;6.62;84.20
84710;BME280;75589;42.648;23.274;2024-03-02T00:51:02;92942.56;;;6.56;84.24
84710;BME280;75589;42.648;23.274;2024-03-02T00:53:29;92953.19;;;6.73;86.02
84710;BME280;75589;42.648;23.274;2024-03-02T00:55:55;92943.66;;;6.73;86.11
84710;BME280;75589;42.648;23.274;2024-03-02T00:58:21;92966.00;;;6.78;85.98
84710;BME280;75589;42.648;23.274;2024-03-02T01:00:46;92941.13;;;6.68;85.27
84710;BME280;75589;42.648;23.274;2024-03-02T01:03:12;92951.03;;;6.85;86.31
84710;BME280;75589;42.648;23.274;2024-03-02T01:05:41;92965.28;;;6.96;85.62
84710;BME280;75589;42.648;23.274;2024-03-02T01:08:07;92945.94;;;6.80;85.98
84710;BME280;75589;42.648;23.274;2024-03-02T01:10:33;92953.78;;;6.88;86.76
84710;BME280;75589;42.648;23.274;2024-03-02T01:12:58;92958.16;;;6.93;86.51
84710;BME280;75589;42.648;23.274;2024-03-02T01:15:24;92950.63;;;6.97;86.57
84710;BME280;75589;42.648;23.274;2024-03-02T01:17:49;92945.47;;;6.97;83.88
84710;BME280;75589;42.648;23.274;2024-03-02T01:20:14;92928.41;;;6.82;84.97
84710;BME280;75589;42.648;23.274;2024-03-02T01:22:40;92948.88;;;6.92;85.58
84710;BME280;75589;42.648;23.274;2024-03-02T01:25:06;92920.75;;;6.77;86.73
84710;BME280;75589;42.648;23.274;2024-03-02T01:27:31;92923.63;;;6.94;85.55
84710;BME280;75589;42.648;23.274;2024-03-02T01:29:57;92929.31;;;6.91;85.60
84710;BME280;75589;42.648;23.274;2024-03-02T01:32:22;92923.97;;;6.87;86.77
84710;BME280;75589;42.648;23.274;2024-03-02T01:34:47;92940.94;;;6.88;85.61
84710;BME280;75589;42.648;23.274;2024-03-02T01:37:13;92939.94;;;6.84;83.77
84710;BME280;75589;42.648;23.274;2024-03-02T01:39:39;92928.47;;;6.77;84.07
84710;BME280;75589;42.648;23.274;2024-03-02T01:42:04;92918.09;;;6.82;85.78
84710;BME280;75589;42.648;23.274;2024-03-02T01:44:30;92929.47;;;6.76;85.70
84710;BME280;75589;42.648;23.274;2024-03-02T01:46:55;92922.88;;;6.70;85.82
84710;BME280;75589;42.648;23.274;2024-03-02T01:49:21;92916.47;;;6.67;86.30
84710;BME280;75589;42.648;23.274;2024-03-02T01:51:46;92915.41;;;6.68;85.89
84710;BME280;75589;42.648;23.274;2024-03-02T01:54:12;92929.59;;;6.66;85.98
84710;BME280;75589;42.648;23.274;2024-03-02T01:56:37;92912.03;;;6.49;86.97
84710;BME280;75589;42.648;23.274;2024-03-02T01:59:03;92919.44;;;6.51;87.19
84710;BME280;75589;42.648;23.274;2024-03-02T02:01:28;92915.03;;;6.56;88.09
84710;BME280;75589;42.648;23.274;2024-03-02T02:03:54;92913.53;;;6.50;88.13
84710;BME280;75589;42.648;23.274;2024-03-02T02:06:20;92915.34;;;6.50;87.21
84710;BME280;75589;42.648;23.274;2024-03-02T02:08:46;92921.66;;;6.62;86.71
84710;BME280;75589;42.648;23.274;2024-03-02T02:11:15;92903.75;;;6.52;86.83
84710;BME280;75589;42.648;23.274;2024-03-02T02:13:41;92917.72;;;6.70;87.53
84710;BME280;75589;42.648;23.274;2024-03-02T02:16:07;92915.25;;;6.83;87.40
84710;BME280;75589;42.648;23.274;2024-03-02T02:18:33;92906.50;;;6.84;87.56
84710;BME280;75589;42.648;23.274;2024-03-02T02:20:59;92909.38;;;6.83;86.94
84710;BME280;75589;42.648;23.274;2024-03-02T02:23:24;92913.19;;;6.85;87.06
84710;BME280;75589;42.648;23.274;2024-03-02T02:25:50;92915.47;;;6.87;86.55
84710;BME280;75589;42.648;23.274;2024-03-02T02:28:15;92910.38;;;6.82;87.84
84710;BME280;75589;42.648;23.274;2024-03-02T02:30:41;92903.22;;;6.79;87.74
84710;BME280;75589;42.648;23.274;2024-03-02T02:33:06;92918.00;;;6.92;88.29
84710;BME280;75589;42.648;23.274;2024-03-02T02:35:31;92905.41;;;6.90;87.67
84710;BME280;75589;42.648;23.274;2024-03-02T02:37:58;92908.47;;;6.92;86.54
84710;BME280;75589;42.648;23.274;2024-03-02T02:40:26;92922.25;;;7.02;87.66
84710;BME280;75589;42.648;23.274;2024-03-02T02:42:54;92918.66;;;7.03;87.95
84710;BME280;75589;42.648;23.274;2024-03-02T02:45:20;92918.66;;;7.03;87.19
84710;BME280;75589;42.648;23.274;2024-03-02T02:47:45;92918.31;;;7.09;87.86
84710;BME280;75589;42.648;23.274;2024-03-02T02:50:11;92917.00;;;7.12;87.20
84710;BME280;75589;42.648;23.274;2024-03-02T02:52:38;92913.16;;;7.09;85.33
84710;BME280;75589;42.648;23.274;2024-03-02T02:55:10;92931.56;;;7.21;86.10
84710;BME280;75589;42.648;23.274;2024-03-02T02:57:37;92926.97;;;7.18;86.68
84710;BME280;75589;42.648;23.274;2024-03-02T03:00:09;92921.03;;;7.18;85.92
84710;BME280;75589;42.648;23.274;2024-03-02T03:02:46;92912.41;;;7.09;86.60
84710;BME280;75589;42.648;23.274;2024-03-02T03:05:13;92913.22;;;7.04;86.56
84710;BME280;75589;42.648;23.274;2024-03-02T03:07:40;92918.84;;;7.06;86.35
84710;BME280;75589;42.648;23.274;2024-03-02T03:10:06;92916.50;;;7.10;87.14
84710;BME280;75589;42.648;23.274;2024-03-02T03:12:32;92909.78;;;7.14;87.00
84710;BME280;75589;42.648;23.274;2024-03-02T03:14:58;92908.28;;;7.08;87.15
84710;BME280;75589;42.648;23.274;2024-03-02T03:17:24;92916.28;;;7.06;87.10
84710;BME280;75589;42.648;23.274;2024-03-02T03:19:50;92911.34;;;7.10;86.73
84710;BME280;75589;42.648;23.274;2024-03-02T03:22:15;92915.19;;;7.12;85.82
84710;BME280;75589;42.648;23.274;2024-03-02T03:24:41;92906.50;;;7.08;85.53
84710;BME280;75589;42.648;23.274;2024-03-02T03:27:07;92916.78;;;7.08;85.95
84710;BME280;75589;42.648;23.274;2024-03-02T03:29:32;92920.28;;;7.17;87.26
84710;BME280;75589;42.648;23.274;2024-03-02T03:31:58;92927.56;;;7.10;86.52
84710;BME280;75589;42.648;23.274;2024-03-02T03:34:23;92906.72;;;6.88;86.62
84710;BME280;75589;42.648;23.274;2024-03-02T03:36:49;92921.53;;;6.96;87.51
84710;BME280;75589;42.648;23.274;2024-03-02T03:39:14;92919.75;;;6.97;87.25
84710;BME280;75589;42.648;23.274;2024-03-02T03:41:42;92917.94;;;6.97;87.70
84710;BME280;75589;42.648;23.274;2024-03-02T03:44:08;92923.31;;;7.01;87.29
84710;BME280;75589;42.648;23.274;2024-03-02T03:46:33;92916.78;;;6.84;87.09
84710;BME280;75589;42.648;23.274;2024-03-02T03:48:58;92908.97;;;6.71;88.57
84710;BME280;75589;42.648;23.274;2024-03-02T03:51:24;92921.44;;;6.59;86.63
84710;BME280;75589;42.648;23.274;2024-03-02T03:53:49;92909.41;;;6.25;85.05
84710;BME280;75589;42.648;23.274;2024-03-02T03:56:15;92919.56;;;6.41;88.38
84710;BME280;75589;42.648;23.274;2024-03-02T03:58:40;92921.16;;;6.37;88.32
84710;BME280;75589;42.648;23.274;2024-03-02T04:01:06;92915.38;;;6.21;88.05
84710;BME280;75589;42.648;23.274;2024-03-02T04:03:32;92907.81;;;6.29;88.31
84710;BME280;75589;42.648;23.274;2024-03-02T04:05:57;92930.59;;;6.41;89.52
84710;BME280;75589;42.648;23.274;2024-03-02T04:08:23;92916.78;;;6.32;87.94
84710;BME280;75589;42.648;23.274;2024-03-02T04:10:48;92920.09;;;6.38;89.01
84710;BME280;75589;42.648;23.274;2024-03-02T04:13:14;92916.50;;;6.39;88.90
84710;BME280;75589;42.648;23.274;2024-03-02T04:15:39;92915.13;;;6.46;89.85
84710;BME280;75589;42.648;23.274;2024-03-02T04:18:05;92925.09;;;6.53;86.58
84710;BME280;75589;42.648;23.274;2024-03-02T04:20:31;92921.03;;;6.47;88.10
84710;BME280;75589;42.648;23.274;2024-03-02T04:22:56;92920.19;;;6.56;88.92
84710;BME280;75589;42.648;23.274;2024-03-02T04:25:22;92923.66;;;6.65;89.54
84710;BME280;75589;42.648;23.274;2024-03-02T04:27:47;92916.25;;;6.64;89.24
84710;BME280;75589;42.648;23.274;2024-03-02T04:30:13;92917.78;;;6.65;88.33
84710;BME280;75589;42.648;23.274;2024-03-02T04:32:39;92921.09;;;6.65;88.85
84710;BME280;75589;42.648;23.274;2024-03-02T04:35:05;92919.78;;;6.68;88.45
84710;BME280;75589;42.648;23.274;2024-03-02T04:37:34;92920.78;;;6.72;88.50
84710;BME280;75589;42.648;23.274;2024-03-02T04:40:00;92932.22;;;6.84;88.88
84710;BME280;75589;42.648;23.274;2024-03-02T04:42:25;92934.53;;;6.86;88.97
84710;BME280;75589;42.648;23.274;2024-03-02T04:44:51;92919.13;;;6.81;88.65
84710;BME280;75589;42.648;23.274;2024-03-02T04:47:16;92936.28;;;6.90;88.85
84710;BME280;75589;42.648;23.274;2024-03-02T04:49:43;92929.72;;;6.79;89.33
84710;BME280;75589;42.648;23.274;2024-03-02T04:52:09;92939.91;;;6.89;88.73
84710;BME280;75589;42.648;23.274;2024-03-02T04:54:34;92918.94;;;6.77;89.78
84710;BME280;75589;42.648;23.274;2024-03-02T04:57:20;92918.59;;;6.84;90.51
84710;BME280;75589;42.648;23.274;2024-03-02T04:59:45;92932.28;;;6.79;91.25
84710;BME280;75589;42.648;23.274;2024-03-02T05:02:11;92945.69;;;6.76;90.80
84710;BME280;75589;42.648;23.274;2024-03-02T05:04:39;92937.59;;;6.64;91.42
84710;BME280;75589;42.648;23.274;2024-03-02T05:07:05;92941.09;;;6.45;91.34
84710;BME280;75589;42.648;23.274;2024-03-02T05:09:31;92919.19;;;6.23;91.67
84710;BME280;75589;42.648;23.274;2024-03-02T05:11:56;92940.16;;;6.36;91.53
84710;BME280;75589;42.648;23.274;2024-03-02T05:14:40;92941.63;;;6.47;93.52
84710;BME280;75589;42.648;23.274;2024-03-02T05:17:06;92942.09;;;6.49;93.45
84710;BME280;75589;42.648;23.274;2024-03-02T05:19:31;92946.19;;;6.50;93.71
84710;BME280;75589;42.648;23.274;2024-03-02T05:21:57;92944.41;;;6.50;93.72
84710;BME280;75589;42.648;23.274;2024-03-02T05:24:22;92948.94;;;6.58;93.53
84710;BME280;75589;42.648;23.274;2024-03-02T05:26:48;92956.97;;;6.57;93.61
84710;BME280;75589;42.648;23.274;2024-03-02T05:29:14;92951.13;;;6.46;93.91
84710;BME280;75589;42.648;23.274;2024-03-02T05:31:39;92955.34;;;6.32;93.92
84710;BME280;75589;42.648;23.274;2024-03-02T05:34:05;92952.75;;;6.37;93.96
84710;BME280;75589;42.648;23.274;2024-03-02T05:36:31;92961.94;;;6.14;93.35
84710;BME280;75589;42.648;23.274;2024-03-02T05:38:57;92971.97;;;6.16;94.01
84710;BME280;75589;42.648;23.274;2024-03-02T05:41:23;92975.06;;;6.13;94.35
84710;BME280;75589;42.648;23.274;2024-03-02T05:43:48;92968.63;;;6.15;94.41
84710;BME280;75589;42.648;23.274;2024-03-02T05:46:14;92975.75;;;6.23;94.69
84710;BME280;75589;42.648;23.274;2024-03-02T05:48:40;92968.78;;;6.29;94.02
84710;BME280;75589;42.648;23.274;2024-03-02T05:51:05;92979.00;;;6.34;95.06
84710;BME280;75589;42.648;23.274;2024-03-02T05:53:31;92966.41;;;6.32;94.33
84710;BME280;75589;42.648;23.274;2024-03-02T05:55:56;92964.03;;;6.41;95.45
84710;BME280;75589;42.648;23.274;2024-03-02T05:58:22;92979.97;;;6.43;94.77
84710;BME280;75589;42.648;23.274;2024-03-02T06:00:53;92966.03;;;6.49;94.82
84710;BME280;75589;42.648;23.274;2024-03-02T06:03:19;92969.31;;;6.55;95.14
84710;BME280;75589;42.648;23.274;2024-03-02T06:05:45;92970.03;;;6.60;94.85
84710;BME280;75589;42.648;23.274;2024-03-02T06:08:10;92949.25;;;6.57;94.82
84710;BME280;75589;42.648;23.274;2024-03-02T06:10:36;92972.06;;;6.63;95.37
84710;BME280;75589;42.648;23.274;2024-03-02T06:13:01;92965.06;;;6.69;95.48
84710;BME280;75589;42.648;23.274;2024-03-02T06:15:27;92972.16;;;6.82;95.72
84710;BME280;75589;42.648;23.274;2024-03-02T06:17:52;92968.75;;;6.86;95.45
84710;BME280;75589;42.648;23.274;2024-03-02T06:20:18;92982.78;;;6.99;95.39
84710;BME280;75589;42.648;23.274;2024-03-02T06:22:43;92972.28;;;6.96;95.58
84710;BME280;75589;42.648;23.274;2024-03-02T06:25:08;92982.94;;;7.08;95.45
84710;BME280;75589;42.648;23.274;2024-03-02T06:27:34;92980.91;;;7.05;95.48
84710;BME280;75589;42.648;23.274;2024-03-02T06:29:59;92967.56;;;7.03;95.11
84710;BME280;75589;42.648;23.274;2024-03-02T06:32:25;92964.75;;;6.99;95.21
84710;BME280;75589;42.648;23.274;2024-03-02T06:34:50;92990.56;;;7.18;95.32
84710;BME280;75589;42.648;23.274;2024-03-02T06:37:16;92972.09;;;7.11;94.48
84710;BME280;75589;42.648;23.274;2024-03-02T06:39:41;92992.84;;;7.19;94.75
84710;BME280;75589;42.648;23.274;2024-03-02T06:42:07;92993.63;;;7.20;94.68
84710;BME280;75589;42.648;23.274;2024-03-02T06:44:34;92987.81;;;7.09;94.53
84710;BME280;75589;42.648;23.274;2024-03-02T06:46:59;92994.28;;;7.07;93.91
84710;BME280;75589;42.648;23.274;2024-03-02T06:49:25;92983.00;;;7.03;94.06
84710;BME280;75589;42.648;23.274;2024-03-02T06:51:50;92989.13;;;7.07;94.19
84710;BME280;75589;42.648;23.274;2024-03-02T06:54:16;92999.31;;;7.17;93.85
84710;BME280;75589;42.648;23.274;2024-03-02T06:56:41;93001.88;;;7.17;94.27
84710;BME280;75589;42.648;23.274;2024-03-02T06:59:06;92988.31;;;7.11;94.21
84710;BME280;75589;42.648;23.274;2024-03-02T07:01:32;92991.69;;;7.07;94.43
84710;BME280;75589;42.648;23.274;2024-03-02T07:03:58;92989.06;;;7.12;94.99
84710;BME280;75589;42.648;23.274;2024-03-02T07:06:23;93007.03;;;7.17;94.25
84710;BME280;75589;42.648;23.274;2024-03-02T07:08:49;93005.94;;;7.23;94.36
84710;BME280;75589;42.648;23.274;2024-03-02T07:11:16;92988.28;;;7.16;94.64
84710;BME280;75589;42.648;23.274;2024-03-02T07:13:42;93006.19;;;7.26;94.40
84710;BME280;75589;42.648;23.274;2024-03-02T07:16:07;93005.47;;;7.21;93.58
84710;BME280;75589;42.648;23.274;2024-03-02T07:19:08;93010.81;;;7.24;93.49
84710;BME280;75589;42.648;23.274;2024-03-02T07:21:34;93007.44;;;7.29;94.37
84710;BME280;75589;42.648;23.274;2024-03-02T07:23:59;93009.06;;;7.43;94.22
84710;BME280;75589;42.648;23.274;2024-03-02T07:26:28;93008.94;;;7.53;93.81
84710;BME280;75589;42.648;23.274;2024-03-02T07:28:55;92989.66;;;7.51;94.67
84710;BME280;75589;42.648;23.274;2024-03-02T07:31:20;93013.19;;;7.63;94.17
84710;BME280;75589;42.648;23.274;2024-03-02T07:33:46;93009.81;;;7.68;93.72
84710;BME280;75589;42.648;23.274;2024-03-02T07:36:12;93013.41;;;7.67;93.42
84710;BME280;75589;42.648;23.274;2024-03-02T07:38:38;92997.81;;;7.58;93.60
84710;BME280;75589;42.648;23.274;2024-03-02T07:41:03;93014.91;;;7.73;92.58
84710;BME280;75589;42.648;23.274;2024-03-02T07:43:30;93022.28;;;7.79;92.90
84710;BME280;75589;42.648;23.274;2024-03-02T07:45:58;93027.91;;;7.81;92.67
84710;BME280;75589;42.648;23.274;2024-03-02T07:48:24;93027.16;;;7.81;92.62
84710;BME280;75589;42.648;23.274;2024-03-02T07:50:50;93023.53;;;7.82;92.10
84710;BME280;75589;42.648;23.274;2024-03-02T07:53:16;93032.81;;;7.83;92.28
84710;BME280;75589;42.648;23.274;2024-03-02T07:55:41;93030.16;;;7.88;93.04
84710;BME280;75589;42.648;23.274;2024-03-02T07:58:07;93024.72;;;7.89;93.06
84710;BME280;75589;42.648;23.274;2024-03-02T08:00:33;93012.38;;;7.86;93.24
84710;BME280;75589;42.648;23.274;2024-03-02T08:02:59;93026.91;;;8.01;92.14
84710;BME280;75589;42.648;23.274;2024-03-02T08:05:24;93022.78;;;8.00;92.34
84710;BME280;75589;42.648;23.274;2024-03-02T08:07:50;93036.38;;;8.05;91.32
84710;BME280;75589;42.648;23.274;2024-03-02T08:10:19;93031.00;;;8.02;91.67
84710;BME280;75589;42.648;23.274;2024-03-02T08:12:45;93045.63;;;8.06;91.45
84710;BME280;75589;42.648;23.274;2024-03-02T08:15:10;93041.53;;;8.05;91.45
84710;BME280;75589;42.648;23.274;2024-03-02T08:17:38;93031.78;;;8.02;91.72
84710;BME280;75589;42.648;23.274;2024-03-02T08:20:06;93035.19;;;7.98;90.97
84710;BME280;75589;42.648;23.274;2024-03-02T08:22:33;93032.66;;;8.11;91.49
84710;BME280;75589;42.648;23.274;2024-03-02T08:24:58;93037.72;;;8.22;91.43
84710;BME280;75589;42.648;23.274;2024-03-02T08:27:24;93036.34;;;8.29;92.35
84710;BME280;75589;42.648;23.274;2024-03-02T08:29:49;93037.78;;;8.35;92.30
84710;BME280;75589;42.648;23.274;2024-03-02T08:32:15;93041.53;;;8.43;91.68
84710;BME280;75589;42.648;23.274;2024-03-02T08:34:42;93034.88;;;8.42;91.51
84710;BME280;75589;42.648;23.274;2024-03-02T08:37:08;93030.03;;;8.35;90.59
84710;BME280;75589;42.648;23.274;2024-03-02T08:39:33;93020.28;;;8.32;90.79
84710;BME280;75589;42.648;23.274;2024-03-02T08:41:59;93033.78;;;8.43;91.42
84710;BME280;75589;42.648;23.274;2024-03-02T08:44:24;93028.94;;;8.41;89.79
84710;BME280;75589;42.648;23.274;2024-03-02T08:46:50;93024.03;;;8.40;89.48
84710;BME280;75589;42.648;23.274;2024-03-02T08:49:15;93027.75;;;8.52;90.81
84710;BME280;75589;42.648;23.274;2024-03-02T08:51:40;93032.59;;;8.54;90.00
84710;BME280;75589;42.648;23.274;2024-03-02T08:54:06;93030.16;;;8.62;89.33
84710;BME280;75589;42.648;23.274;2024-03-02T08:56:31;93041.84;;;8.73;90.45
84710;BME280;75589;42.648;23.274;2024-03-02T08:58:57;93036.88;;;8.77;89.71
84710;BME280;75589;42.648;23.274;2024-03-02T09:01:23;93036.88;;;8.77;89.51
84710;BME280;75589;42.648;23.274;2024-03-02T09:03:48;93026.09;;;8.75;90.34
84710;BME280;75589;42.648;23.274;2024-03-02T09:06:14;93037.00;;;8.86;89.45
84710;BME280;75589;42.648;23.274;2024-03-02T09:08:42;93034.91;;;8.88;88.98
84710;BME280;75589;42.648;23.274;2024-03-02T09:11:08;93052.91;;;8.93;89.57
84710;BME280;75589;42.648;23.274;2024-03-02T09:13:35;93042.09;;;8.91;90.14
84710;BME280;75589;42.648;23.274;2024-03-02T09:16:01;93045.63;;;8.95;89.37
84710;BME280;75589;42.648;23.274;2024-03-02T09:18:26;93050.56;;;8.91;88.52
84710;BME280;75589;42.648;23.274;2024-03-02T09:20:52;93046.97;;;8.92;88.60
84710;BME280;75589;42.648;23.274;2024-03-02T09:23:17;93056.25;;;8.93;89.22
84710;BME280;75589;42.648;23.274;2024-03-02T09:25:43;93062.16;;;8.94;89.58
84710;BME280;75589;42.648;23.274;2024-03-02T09:28:08;93048.69;;;8.97;88.92
84710;BME280;75589;42.648;23.274;2024-03-02T09:30:34;93048.69;;;8.97;90.14
84710;BME280;75589;42.648;23.274;2024-03-02T09:32:59;93059.22;;;9.00;88.85
84710;BME280;75589;42.648;23.274;2024-03-02T09:35:25;93063.91;;;8.98;88.89
84710;BME280;75589;42.648;23.274;2024-03-02T09:37:50;93067.75;;;9.01;88.78
84710;BME280;75589;42.648;23.274;2024-03-02T09:40:16;93057.41;;;9.01;87.10
84710;BME280;75589;42.648;23.274;2024-03-02T09:42:42;93060.81;;;8.96;89.24
84710;BME280;75589;42.648;23.274;2024-03-02T09:45:09;93052.97;;;8.88;88.33
84710;BME280;75589;42.648;23.274;2024-03-02T09:47:35;93065.88;;;8.88;87.81
84710;BME280;75589;42.648;23.274;2024-03-02T09:50:01;93067.56;;;8.78;86.65
84710;BME280;75589;42.648;23.274;2024-03-02T09:52:27;93066.81;;;8.78;87.86
84710;BME280;75589;42.648;23.274;2024-03-02T09:54:52;93068.06;;;8.80;89.33
84710;BME280;75589;42.648;23.274;2024-03-02T09:57:18;93061.66;;;8.78;88.49
84710;BME280;75589;42.648;23.274;2024-03-02T09:59:43;93069.59;;;8.81;88.35
84710;BME280;75589;42.648;23.274;2024-03-02T10:02:10;93056.41;;;8.83;88.34
84710;BME280;75589;42.648;23.274;2024-03-02T10:04:36;93069.97;;;8.89;87.32
84710;BME280;75589;42.648;23.274;2024-03-02T10:07:14;93067.69;;;8.87;88.23
84710;BME280;75589;42.648;23.274;2024-03-02T10:09:44;93057.66;;;8.86;89.42
84710;BME280;75589;42.648;23.274;2024-03-02T10:12:11;93061.19;;;8.90;87.10
84710;BME280;75589;42.648;23.274;2024-03-02T10:14:37;93053.25;;;8.86;87.49
84710;BME280;75589;42.648;23.274;2024-03-02T10:17:05;93058.41;;;8.86;87.34
84710;BME280;75589;42.648;23.274;2024-03-02T10:19:31;93052.78;;;8.84;87.21
84710;BME280;75589;42.648;23.274;2024-03-02T10:22:04;93058.56;;;8.76;85.76
84710;BME280;75589;42.648;23.274;2024-03-02T10:24:41;93061.22;;;8.71;87.74
84710;BME280;75589;42.648;23.274;2024-03-02T10:27:18;93057.56;;;8.58;87.19
84710;BME280;75589;42.648;23.274;2024-03-02T10:29:47;93071.44;;;8.62;88.40
84710;BME280;75589;42.648;23.274;2024-03-02T10:32:12;93054.56;;;8.51;87.94
84710;BME280;75589;42.648;23.274;2024-03-02T10:34:42;93063.66;;;8.49;88.25
84710;BME280;75589;42.648;23.274;2024-03-02T10:37:08;93060.63;;;8.04;87.12
84710;BME280;75589;42.648;23.274;2024-03-02T10:39:34;93053.66;;;8.24;89.63
84710;BME280;75589;42.648;23.274;2024-03-02T10:42:05;93062.19;;;8.43;87.08
84710;BME280;75589;42.648;23.274;2024-03-02T10:44:31;93051.03;;;8.47;89.09
84710;BME280;75589;42.648;23.274;2024-03-02T10:47:00;93039.72;;;7.87;86.82
84710;BME280;75589;42.648;23.274;2024-03-02T10:49:26;93045.56;;;7.93;88.45
84710;BME280;75589;42.648;23.274;2024-03-02T10:51:52;93044.19;;;8.19;90.06
84710;BME280;75589;42.648;23.274;2024-03-02T10:54:18;93033.00;;;7.86;86.82
84710;BME280;75589;42.648;23.274;2024-03-02T10:56:44;93038.09;;;7.73;89.69
84710;BME280;75589;42.648;23.274;2024-03-02T10:59:33;93051.06;;;8.05;91.27
84710;BME280;75589;42.648;23.274;2024-03-02T11:02:01;93037.69;;;8.03;89.75
84710;BME280;75589;42.648;23.274;2024-03-02T11:04:28;93036.50;;;7.95;90.54
84710;BME280;75589;42.648;23.274;2024-03-02T11:07:03;93040.69;;;8.10;89.74
84710;BME280;75589;42.648;23.274;2024-03-02T11:09:30;93047.53;;;8.01;87.84
84710;BME280;75589;42.648;23.274;2024-03-02T11:12:23;93038.28;;;7.76;89.88
84710;BME280;75589;42.648;23.274;2024-03-02T11:14:50;93037.84;;;7.93;90.58
84710;BME280;75589;42.648;23.274;2024-03-02T11:17:17;93036.50;;;7.95;90.18
84710;BME280;75589;42.648;23.274;2024-03-02T11:19:43;93037.88;;;8.06;90.94
84710;BME280;75589;42.648;23.274;2024-03-02T11:22:10;93037.34;;;8.09;90.58
84710;BME280;75589;42.648;23.274;2024-03-02T11:24:36;93046.00;;;8.18;91.26
84710;BME280;75589;42.648;23.274;2024-03-02T11:27:03;93038.19;;;8.24;91.36
84710;BME280;75589;42.648;23.274;2024-03-02T11:32:12;93037.00;;;8.35;90.70
84710;BME280;75589;42.648;23.274;2024-03-02T11:34:42;93037.91;;;8.44;89.60
84710;BME280;75589;42.648;23.274;2024-03-02T11:37:18;93040.91;;;8.51;89.37
84710;BME280;75589;42.648;23.274;2024-03-02T11:39:46;93035.09;;;8.59;89.02
84710;BME280;75589;42.648;23.274;2024-03-02T11:42:12;93025.34;;;8.56;89.72
84710;BME280;75589;42.648;23.274;2024-03-02T11:44:46;93033.00;;;8.61;88.60
84710;BME280;75589;42.648;23.274;2024-03-02T11:47:14;93027.38;;;8.59;89.73
84710;BME280;75589;42.648;23.274;2024-03-02T11:49:45;93042.47;;;8.65;88.43
84710;BME280;75589;42.648;23.274;2024-03-02T11:52:14;93027.94;;;8.56;88.51
84710;BME280;75589;42.648;23.274;2024-03-02T11:54:45;93035.19;;;8.54;88.79
84710;BME280;75589;42.648;23.274;2024-03-02T11:57:21;93037.41;;;8.60;88.26
84710;BME280;75589;42.648;23.274;2024-03-02T11:59:51;93031.56;;;8.55;87.62
84710;BME280;75589;42.648;23.274;2024-03-02T12:02:20;93045.72;;;8.57;87.40
84710;BME280;75589;42.648;23.274;2024-03-02T12:04:47;93040.34;;;8.54;87.38
84710;BME280;75589;42.648;23.274;2024-03-02T12:07:19;93038.88;;;8.48;88.06
84710;BME280;75589;42.648;23.274;2024-03-02T12:09:45;93035.56;;;8.47;88.18
84710;BME280;75589;42.648;23.274;2024-03-02T12:12:11;93034.31;;;8.45;87.73
84710;BME280;75589;42.648;23.274;2024-03-02T12:14:38;93030.88;;;8.49;87.22
84710;BME280;75589;42.648;23.274;2024-03-02T12:17:04;93039.00;;;8.56;87.92
84710;BME280;75589;42.648;23.274;2024-03-02T12:19:31;93032.16;;;8.65;87.73
84710;BME280;75589;42.648;23.274;2024-03-02T12:21:57;93038.31;;;8.69;88.22
84710;BME280;75589;42.648;23.274;2024-03-02T12:24:23;93026.44;;;8.68;86.98
84710;BME280;75589;42.648;23.274;2024-03-02T12:26:50;93039.38;;;8.82;87.58
84710;BME280;75589;42.648;23.274;2024-03-02T12:29:16;93034.13;;;8.87;87.44
84710;BME280;75589;42.648;23.274;2024-03-02T12:31:42;93029.53;;;8.84;87.61
84710;BME280;75589;42.648;23.274;2024-03-02T12:34:12;93027.56;;;8.95;87.15
84710;BME280;75589;42.648;23.274;2024-03-02T12:36:38;93029.47;;;9.03;85.64
84710;BME280;75589;42.648;23.274;2024-03-02T12:39:04;93037.34;;;9.11;86.40
84710;BME280;75589;42.648;23.274;2024-03-02T12:41:30;93033.59;;;9.17;87.34
84710;BME280;75589;42.648;23.274;2024-03-02T12:43:56;93011.69;;;9.15;85.82
84710;BME280;75589;42.648;23.274;2024-03-02T12:46:21;93028.56;;;9.26;87.94
84710;BME280;75589;42.648;23.274;2024-03-02T12:48:47;93030.75;;;9.32;86.27
84710;BME280;75589;42.648;23.274;2024-03-02T12:51:13;93024.44;;;9.38;86.49
84710;BME280;75589;42.648;23.274;2024-03-02T12:53:39;93020.44;;;9.46;86.29
84710;BME280;75589;42.648;23.274;2024-03-02T12:56:05;93026.16;;;9.57;85.63
84710;BME280;75589;42.648;23.274;2024-03-02T12:58:39;93040.25;;;9.64;85.60
84710;BME280;75589;42.648;23.274;2024-03-02T13:01:07;93040.81;;;9.61;84.44
84710;BME280;75589;42.648;23.274;2024-03-02T13:03:40;93032.69;;;9.54;85.79